SPCL/PCL METAR and TAF weather

Enter ICAO airport designator
Station Type Date Time Source
SPCL METAR 2021/06/23 00:00 UTC NOAA

SPCL 230000Z 06003KT 9999 SCT015 27/23 Q1014 RMK PP000


Station Type Date Time Source
SPCL Decoded METAR 2021/06/23 00:00 UTC NOAA

Pucallpa, Peru (SPCL) 08-25S 074-36W 149M
Jun 22, 2021 - 08:00 PM EDT / 2021.06.23 0000 UTC
Wind: from the ENE (060 degrees) at 3 MPH (3 KT):0
Visibility: greater than 7 mile(s):0
Sky conditions: partly cloudy
Temperature: 80 F (27 C)
Dew Point: 73 F (23 C)
Relative Humidity: 78%
Pressure (altimeter): 29.94 in. Hg (1014 hPa)
ob: SPCL 230000Z 06003KT 9999 SCT015 27/23 Q1014 RMK PP000
cycle: 0

Station Type Date Time Source
SPCL TAF 2021/06/22 18:33 UTC NOAA

TAF TAF SPCL 221700Z 2218/2318 15004KT 9999 BKN020 TX31/2220Z TN22/2311Z
TEMPO 2309/2313 1000 BCFG BKN005

Example: see airport list